sensor_id;sensor_type;location;lat;lon;timestamp;P1;durP1;ratioP1;P2;durP2;ratioP2
23123;SDS011;11731;48.592;8.858;2023-02-18T00:01:42;0.70;;;0.70;;
23123;SDS011;11731;48.592;8.858;2023-02-18T00:04:09;0.97;;;0.90;;
23123;SDS011;11731;48.592;8.858;2023-02-18T00:06:38;5.50;;;0.90;;
23123;SDS011;11731;48.592;8.858;2023-02-18T00:09:05;1.97;;;0.80;;
23123;SDS011;11731;48.592;8.858;2023-02-18T00:11:33;2.07;;;1.00;;
23123;SDS011;11731;48.592;8.858;2023-02-18T00:14:01;0.80;;;0.80;;
23123;SDS011;11731;48.592;8.858;2023-02-18T00:16:30;1.57;;;0.90;;
23123;SDS011;11731;48.592;8.858;2023-02-18T00:18:57;1.10;;;1.00;;
23123;SDS011;11731;48.592;8.858;2023-02-18T00:21:25;1.40;;;1.00;;
23123;SDS011;11731;48.592;8.858;2023-02-18T00:23:54;1.13;;;1.00;;
23123;SDS011;11731;48.592;8.858;2023-02-18T00:26:21;1.13;;;1.03;;
23123;SDS011;11731;48.592;8.858;2023-02-18T00:28:48;1.10;;;1.00;;
23123;SDS011;11731;48.592;8.858;2023-02-18T00:31:19;1.77;;;1.17;;
23123;SDS011;11731;48.592;8.858;2023-02-18T00:33:47;1.17;;;1.07;;
23123;SDS011;11731;48.592;8.858;2023-02-18T00:36:14;1.30;;;1.20;;
23123;SDS011;11731;48.592;8.858;2023-02-18T00:38:43;0.90;;;0.90;;
23123;SDS011;11731;48.592;8.858;2023-02-18T00:41:11;1.00;;;0.90;;
23123;SDS011;11731;48.592;8.858;2023-02-18T00:43:45;1.43;;;1.00;;
23123;SDS011;11731;48.592;8.858;2023-02-18T00:46:12;0.90;;;0.90;;
23123;SDS011;11731;48.592;8.858;2023-02-18T00:48:59;1.10;;;1.00;;
23123;SDS011;11731;48.592;8.858;2023-02-18T00:51:26;1.27;;;1.00;;
23123;SDS011;11731;48.592;8.858;2023-02-18T00:54:24;3.30;;;1.10;;
23123;SDS011;11731;48.592;8.858;2023-02-18T00:56:42;0.90;;;0.90;;
23123;SDS011;11731;48.592;8.858;2023-02-18T00:59:09;2.80;;;1.00;;
23123;SDS011;11731;48.592;8.858;2023-02-18T01:01:36;1.03;;;0.93;;
23123;SDS011;11731;48.592;8.858;2023-02-18T01:04:06;1.10;;;1.00;;
23123;SDS011;11731;48.592;8.858;2023-02-18T01:06:33;1.33;;;0.90;;
23123;SDS011;11731;48.592;8.858;2023-02-18T01:09:00;1.20;;;1.00;;
23123;SDS011;11731;48.592;8.858;2023-02-18T01:11:27;0.97;;;0.97;;
23123;SDS011;11731;48.592;8.858;2023-02-18T01:14:00;1.80;;;1.17;;
23123;SDS011;11731;48.592;8.858;2023-02-18T01:16:27;1.20;;;0.90;;
23123;SDS011;11731;48.592;8.858;2023-02-18T01:18:55;1.20;;;1.03;;
23123;SDS011;11731;48.592;8.858;2023-02-18T01:21:22;1.10;;;1.00;;
23123;SDS011;11731;48.592;8.858;2023-02-18T01:23:49;1.23;;;1.00;;
23123;SDS011;11731;48.592;8.858;2023-02-18T01:26:16;1.10;;;1.00;;
23123;SDS011;11731;48.592;8.858;2023-02-18T01:28:43;1.43;;;0.97;;
23123;SDS011;11731;48.592;8.858;2023-02-18T01:31:11;1.17;;;1.00;;
23123;SDS011;11731;48.592;8.858;2023-02-18T01:33:39;1.20;;;1.10;;
23123;SDS011;11731;48.592;8.858;2023-02-18T01:36:07;1.10;;;0.90;;
23123;SDS011;11731;48.592;8.858;2023-02-18T01:38:34;1.80;;;1.20;;
23123;SDS011;11731;48.592;8.858;2023-02-18T01:41:02;2.20;;;1.10;;
23123;SDS011;11731;48.592;8.858;2023-02-18T01:43:29;1.20;;;1.10;;
23123;SDS011;11731;48.592;8.858;2023-02-18T01:45:58;1.20;;;1.10;;
23123;SDS011;11731;48.592;8.858;2023-02-18T01:48:41;1.20;;;1.10;;
23123;SDS011;11731;48.592;8.858;2023-02-18T01:51:12;2.67;;;1.30;;
23123;SDS011;11731;48.592;8.858;2023-02-18T01:53:44;1.30;;;1.20;;
23123;SDS011;11731;48.592;8.858;2023-02-18T01:56:16;1.13;;;1.03;;
23123;SDS011;11731;48.592;8.858;2023-02-18T01:58:49;1.30;;;1.20;;
23123;SDS011;11731;48.592;8.858;2023-02-18T02:04:30;2.33;;;1.30;;
23123;SDS011;11731;48.592;8.858;2023-02-18T02:06:57;1.30;;;1.10;;
23123;SDS011;11731;48.592;8.858;2023-02-18T02:09:24;1.97;;;1.10;;
23123;SDS011;11731;48.592;8.858;2023-02-18T02:15:04;1.20;;;1.10;;
23123;SDS011;11731;48.592;8.858;2023-02-18T02:17:43;1.27;;;1.17;;
23123;SDS011;11731;48.592;8.858;2023-02-18T02:20:32;2.03;;;1.10;;
23123;SDS011;11731;48.592;8.858;2023-02-18T02:26:57;1.20;;;1.00;;
23123;SDS011;11731;48.592;8.858;2023-02-18T02:32:48;1.37;;;1.00;;
23123;SDS011;11731;48.592;8.858;2023-02-18T02:35:29;1.50;;;1.40;;
23123;SDS011;11731;48.592;8.858;2023-02-18T02:38:01;2.07;;;1.20;;
23123;SDS011;11731;48.592;8.858;2023-02-18T02:40:32;1.50;;;1.07;;
23123;SDS011;11731;48.592;8.858;2023-02-18T02:43:08;1.60;;;1.20;;
23123;SDS011;11731;48.592;8.858;2023-02-18T02:45:47;2.70;;;1.57;;
23123;SDS011;11731;48.592;8.858;2023-02-18T02:48:21;2.60;;;1.30;;
23123;SDS011;11731;48.592;8.858;2023-02-18T02:51:02;1.40;;;1.30;;
23123;SDS011;11731;48.592;8.858;2023-02-18T02:53:38;1.90;;;1.40;;
23123;SDS011;11731;48.592;8.858;2023-02-18T02:56:08;1.70;;;1.30;;
23123;SDS011;11731;48.592;8.858;2023-02-18T02:58:40;1.67;;;1.07;;
23123;SDS011;11731;48.592;8.858;2023-02-18T03:01:16;1.50;;;1.40;;
23123;SDS011;11731;48.592;8.858;2023-02-18T03:03:54;1.57;;;1.40;;
23123;SDS011;11731;48.592;8.858;2023-02-18T03:09:42;2.07;;;1.03;;
23123;SDS011;11731;48.592;8.858;2023-02-18T03:12:23;2.77;;;2.20;;
23123;SDS011;11731;48.592;8.858;2023-02-18T03:15:01;1.50;;;1.40;;
23123;SDS011;11731;48.592;8.858;2023-02-18T03:17:34;1.77;;;1.00;;
23123;SDS011;11731;48.592;8.858;2023-02-18T03:20:05;2.73;;;1.27;;
23123;SDS011;11731;48.592;8.858;2023-02-18T03:22:37;1.20;;;1.10;;
23123;SDS011;11731;48.592;8.858;2023-02-18T03:25:06;2.60;;;1.30;;
23123;SDS011;11731;48.592;8.858;2023-02-18T03:27:36;1.07;;;1.00;;
23123;SDS011;11731;48.592;8.858;2023-02-18T03:30:09;1.40;;;1.30;;
23123;SDS011;11731;48.592;8.858;2023-02-18T03:32:40;1.30;;;1.20;;
23123;SDS011;11731;48.592;8.858;2023-02-18T03:35:10;1.63;;;1.20;;
23123;SDS011;11731;48.592;8.858;2023-02-18T03:37:42;1.97;;;1.30;;
23123;SDS011;11731;48.592;8.858;2023-02-18T03:40:14;2.47;;;1.10;;
23123;SDS011;11731;48.592;8.858;2023-02-18T03:42:42;1.30;;;1.20;;
23123;SDS011;11731;48.592;8.858;2023-02-18T03:45:09;1.30;;;1.20;;
23123;SDS011;11731;48.592;8.858;2023-02-18T03:47:36;1.40;;;1.20;;
23123;SDS011;11731;48.592;8.858;2023-02-18T03:50:03;2.23;;;1.50;;
23123;SDS011;11731;48.592;8.858;2023-02-18T03:52:31;1.40;;;1.30;;
23123;SDS011;11731;48.592;8.858;2023-02-18T03:57:43;1.40;;;1.30;;
23123;SDS011;11731;48.592;8.858;2023-02-18T04:00:11;1.27;;;1.17;;
23123;SDS011;11731;48.592;8.858;2023-02-18T04:02:38;2.80;;;1.50;;
23123;SDS011;11731;48.592;8.858;2023-02-18T04:05:06;1.50;;;1.30;;
23123;SDS011;11731;48.592;8.858;2023-02-18T04:07:33;3.43;;;1.33;;
23123;SDS011;11731;48.592;8.858;2023-02-18T04:10:00;1.40;;;1.30;;
23123;SDS011;11731;48.592;8.858;2023-02-18T04:12:30;1.30;;;1.20;;
23123;SDS011;11731;48.592;8.858;2023-02-18T04:14:57;1.53;;;1.43;;
23123;SDS011;11731;48.592;8.858;2023-02-18T04:17:24;2.10;;;1.60;;
23123;SDS011;11731;48.592;8.858;2023-02-18T04:19:51;1.90;;;1.30;;
23123;SDS011;11731;48.592;8.858;2023-02-18T04:22:20;1.20;;;1.10;;
23123;SDS011;11731;48.592;8.858;2023-02-18T04:24:47;1.43;;;1.23;;
23123;SDS011;11731;48.592;8.858;2023-02-18T04:27:14;1.83;;;1.40;;
23123;SDS011;11731;48.592;8.858;2023-02-18T04:29:42;1.70;;;1.30;;
23123;SDS011;11731;48.592;8.858;2023-02-18T04:32:09;1.40;;;1.30;;
23123;SDS011;11731;48.592;8.858;2023-02-18T04:34:36;1.47;;;1.27;;
23123;SDS011;11731;48.592;8.858;2023-02-18T04:37:03;1.93;;;1.60;;
23123;SDS011;11731;48.592;8.858;2023-02-18T04:39:31;3.83;;;1.70;;
23123;SDS011;11731;48.592;8.858;2023-02-18T04:42:12;1.40;;;1.30;;
23123;SDS011;11731;48.592;8.858;2023-02-18T04:44:39;1.67;;;1.57;;
23123;SDS011;11731;48.592;8.858;2023-02-18T04:47:07;1.80;;;1.70;;
23123;SDS011;11731;48.592;8.858;2023-02-18T04:49:34;2.67;;;1.90;;
23123;SDS011;11731;48.592;8.858;2023-02-18T04:52:11;2.60;;;1.40;;
23123;SDS011;11731;48.592;8.858;2023-02-18T04:54:38;3.00;;;1.50;;
23123;SDS011;11731;48.592;8.858;2023-02-18T04:57:05;1.70;;;1.50;;
23123;SDS011;11731;48.592;8.858;2023-02-18T04:59:32;1.63;;;1.53;;
23123;SDS011;11731;48.592;8.858;2023-02-18T05:02:01;2.03;;;1.67;;
23123;SDS011;11731;48.592;8.858;2023-02-18T05:07:46;2.13;;;1.80;;
23123;SDS011;11731;48.592;8.858;2023-02-18T05:10:18;1.73;;;1.50;;
23123;SDS011;11731;48.592;8.858;2023-02-18T05:12:45;1.60;;;1.50;;
23123;SDS011;11731;48.592;8.858;2023-02-18T05:15:12;1.33;;;1.23;;
23123;SDS011;11731;48.592;8.858;2023-02-18T05:17:39;1.70;;;1.60;;
23123;SDS011;11731;48.592;8.858;2023-02-18T05:20:06;1.57;;;1.47;;
23123;SDS011;11731;48.592;8.858;2023-02-18T05:22:35;1.63;;;1.53;;
23123;SDS011;11731;48.592;8.858;2023-02-18T05:25:02;1.70;;;1.43;;
23123;SDS011;11731;48.592;8.858;2023-02-18T05:27:30;1.73;;;1.50;;
23123;SDS011;11731;48.592;8.858;2023-02-18T05:29:57;1.47;;;1.17;;
23123;SDS011;11731;48.592;8.858;2023-02-18T05:32:23;1.50;;;1.40;;
23123;SDS011;11731;48.592;8.858;2023-02-18T05:34:50;1.60;;;1.50;;
23123;SDS011;11731;48.592;8.858;2023-02-18T05:37:17;1.57;;;1.47;;
23123;SDS011;11731;48.592;8.858;2023-02-18T05:39:45;1.73;;;1.47;;
23123;SDS011;11731;48.592;8.858;2023-02-18T05:42:12;1.77;;;1.67;;
23123;SDS011;11731;48.592;8.858;2023-02-18T05:44:41;1.70;;;1.60;;
23123;SDS011;11731;48.592;8.858;2023-02-18T05:47:09;3.23;;;1.73;;
23123;SDS011;11731;48.592;8.858;2023-02-18T05:49:38;2.10;;;1.57;;
23123;SDS011;11731;48.592;8.858;2023-02-18T05:52:21;1.40;;;1.27;;
23123;SDS011;11731;48.592;8.858;2023-02-18T05:55:02;1.50;;;1.40;;
23123;SDS011;11731;48.592;8.858;2023-02-18T05:57:29;2.10;;;1.60;;
23123;SDS011;11731;48.592;8.858;2023-02-18T05:59:56;1.33;;;1.23;;
23123;SDS011;11731;48.592;8.858;2023-02-18T06:02:23;2.03;;;1.40;;
23123;SDS011;11731;48.592;8.858;2023-02-18T06:04:50;2.60;;;1.60;;
23123;SDS011;11731;48.592;8.858;2023-02-18T06:07:44;2.20;;;1.50;;
23123;SDS011;11731;48.592;8.858;2023-02-18T06:10:12;2.00;;;1.67;;
23123;SDS011;11731;48.592;8.858;2023-02-18T06:12:39;1.60;;;1.40;;
23123;SDS011;11731;48.592;8.858;2023-02-18T06:15:16;1.83;;;1.30;;
23123;SDS011;11731;48.592;8.858;2023-02-18T06:17:43;1.03;;;1.03;;
23123;SDS011;11731;48.592;8.858;2023-02-18T06:20:10;1.53;;;1.43;;
23123;SDS011;11731;48.592;8.858;2023-02-18T06:22:37;2.10;;;1.57;;
23123;SDS011;11731;48.592;8.858;2023-02-18T06:25:04;1.50;;;1.40;;
23123;SDS011;11731;48.592;8.858;2023-02-18T06:27:39;1.90;;;1.63;;
23123;SDS011;11731;48.592;8.858;2023-02-18T06:30:06;1.40;;;1.30;;
23123;SDS011;11731;48.592;8.858;2023-02-18T06:32:34;1.67;;;1.30;;
23123;SDS011;11731;48.592;8.858;2023-02-18T06:35:00;1.60;;;1.50;;
23123;SDS011;11731;48.592;8.858;2023-02-18T06:37:30;2.77;;;1.57;;
23123;SDS011;11731;48.592;8.858;2023-02-18T06:39:57;2.33;;;1.60;;
23123;SDS011;11731;48.592;8.858;2023-02-18T06:42:24;1.63;;;1.53;;
23123;SDS011;11731;48.592;8.858;2023-02-18T06:44:52;2.10;;;1.60;;
23123;SDS011;11731;48.592;8.858;2023-02-18T06:47:19;2.93;;;1.90;;
23123;SDS011;11731;48.592;8.858;2023-02-18T06:49:46;1.93;;;1.63;;
23123;SDS011;11731;48.592;8.858;2023-02-18T06:52:13;2.43;;;1.60;;
23123;SDS011;11731;48.592;8.858;2023-02-18T06:54:40;1.50;;;1.30;;
23123;SDS011;11731;48.592;8.858;2023-02-18T06:57:07;1.93;;;1.70;;
23123;SDS011;11731;48.592;8.858;2023-02-18T06:59:34;1.40;;;1.30;;
23123;SDS011;11731;48.592;8.858;2023-02-18T07:02:02;2.03;;;1.63;;
23123;SDS011;11731;48.592;8.858;2023-02-18T07:04:29;3.43;;;1.50;;
23123;SDS011;11731;48.592;8.858;2023-02-18T07:06:55;1.53;;;1.43;;
23123;SDS011;11731;48.592;8.858;2023-02-18T07:09:22;3.23;;;1.63;;
23123;SDS011;11731;48.592;8.858;2023-02-18T07:11:49;1.40;;;1.30;;
23123;SDS011;11731;48.592;8.858;2023-02-18T07:14:16;1.67;;;1.50;;
23123;SDS011;11731;48.592;8.858;2023-02-18T07:16:43;2.00;;;1.70;;
23123;SDS011;11731;48.592;8.858;2023-02-18T07:19:11;2.80;;;1.97;;
23123;SDS011;11731;48.592;8.858;2023-02-18T07:21:38;1.73;;;1.63;;
23123;SDS011;11731;48.592;8.858;2023-02-18T07:24:05;1.83;;;1.70;;
23123;SDS011;11731;48.592;8.858;2023-02-18T07:26:32;3.07;;;1.67;;
23123;SDS011;11731;48.592;8.858;2023-02-18T07:28:59;1.60;;;1.50;;
23123;SDS011;11731;48.592;8.858;2023-02-18T07:31:26;1.87;;;1.77;;
23123;SDS011;11731;48.592;8.858;2023-02-18T07:33:53;2.03;;;1.80;;
23123;SDS011;11731;48.592;8.858;2023-02-18T07:36:21;2.47;;;1.73;;
23123;SDS011;11731;48.592;8.858;2023-02-18T07:38:48;1.80;;;1.70;;
23123;SDS011;11731;48.592;8.858;2023-02-18T07:41:16;1.50;;;1.40;;
23123;SDS011;11731;48.592;8.858;2023-02-18T07:43:44;1.57;;;1.40;;
23123;SDS011;11731;48.592;8.858;2023-02-18T07:46:11;1.60;;;1.50;;
23123;SDS011;11731;48.592;8.858;2023-02-18T07:48:38;3.47;;;1.40;;
23123;SDS011;11731;48.592;8.858;2023-02-18T07:51:05;1.43;;;1.30;;
23123;SDS011;11731;48.592;8.858;2023-02-18T07:53:34;1.43;;;1.33;;
23123;SDS011;11731;48.592;8.858;2023-02-18T07:56:01;2.53;;;1.33;;
23123;SDS011;11731;48.592;8.858;2023-02-18T07:58:31;1.20;;;1.10;;
23123;SDS011;11731;48.592;8.858;2023-02-18T08:00:58;1.27;;;1.10;;
23123;SDS011;11731;48.592;8.858;2023-02-18T08:03:34;1.30;;;1.20;;
23123;SDS011;11731;48.592;8.858;2023-02-18T08:06:03;3.10;;;1.40;;
23123;SDS011;11731;48.592;8.858;2023-02-18T08:08:36;1.40;;;1.30;;
23123;SDS011;11731;48.592;8.858;2023-02-18T08:11:03;3.27;;;1.40;;
23123;SDS011;11731;48.592;8.858;2023-02-18T08:13:31;2.03;;;1.47;;
23123;SDS011;11731;48.592;8.858;2023-02-18T08:15:58;1.50;;;1.40;;
23123;SDS011;11731;48.592;8.858;2023-02-18T08:18:25;2.53;;;1.30;;
23123;SDS011;11731;48.592;8.858;2023-02-18T08:20:52;1.97;;;1.40;;
23123;SDS011;11731;48.592;8.858;2023-02-18T08:23:20;1.30;;;1.10;;
23123;SDS011;11731;48.592;8.858;2023-02-18T08:25:51;1.50;;;1.10;;
23123;SDS011;11731;48.592;8.858;2023-02-18T08:28:19;1.20;;;1.10;;
23123;SDS011;11731;48.592;8.858;2023-02-18T08:30:48;1.40;;;1.03;;
23123;SDS011;11731;48.592;8.858;2023-02-18T08:33:16;0.93;;;0.90;;
23123;SDS011;11731;48.592;8.858;2023-02-18T08:35:44;1.77;;;1.20;;
23123;SDS011;11731;48.592;8.858;2023-02-18T08:38:12;1.17;;;1.00;;
23123;SDS011;11731;48.592;8.858;2023-02-18T08:40:39;1.00;;;0.90;;
23123;SDS011;11731;48.592;8.858;2023-02-18T08:43:08;1.30;;;0.90;;
23123;SDS011;11731;48.592;8.858;2023-02-18T08:45:35;1.77;;;1.20;;
23123;SDS011;11731;48.592;8.858;2023-02-18T08:48:03;1.20;;;1.10;;
23123;SDS011;11731;48.592;8.858;2023-02-18T08:50:30;1.60;;;1.20;;
23123;SDS011;11731;48.592;8.858;2023-02-18T08:52:57;1.47;;;1.20;;
23123;SDS011;11731;48.592;8.858;2023-02-18T08:55:27;1.00;;;1.00;;
23123;SDS011;11731;48.592;8.858;2023-02-18T08:57:57;1.57;;;1.17;;
23123;SDS011;11731;48.592;8.858;2023-02-18T09:03:36;1.30;;;0.97;;
23123;SDS011;11731;48.592;8.858;2023-02-18T09:06:04;1.10;;;1.00;;
23123;SDS011;11731;48.592;8.858;2023-02-18T09:08:33;2.17;;;1.10;;
23123;SDS011;11731;48.592;8.858;2023-02-18T09:11:01;2.27;;;1.00;;
23123;SDS011;11731;48.592;8.858;2023-02-18T09:13:42;1.20;;;1.07;;
23123;SDS011;11731;48.592;8.858;2023-02-18T09:16:10;1.57;;;0.83;;
23123;SDS011;11731;48.592;8.858;2023-02-18T09:18:40;0.97;;;0.97;;
23123;SDS011;11731;48.592;8.858;2023-02-18T09:21:07;0.90;;;0.90;;
23123;SDS011;11731;48.592;8.858;2023-02-18T09:23:35;0.90;;;0.90;;
23123;SDS011;11731;48.592;8.858;2023-02-18T09:26:05;3.87;;;1.30;;
23123;SDS011;11731;48.592;8.858;2023-02-18T09:28:33;1.10;;;1.00;;
23123;SDS011;11731;48.592;8.858;2023-02-18T09:31:02;1.13;;;1.00;;
23123;SDS011;11731;48.592;8.858;2023-02-18T09:33:43;1.03;;;0.90;;
23123;SDS011;11731;48.592;8.858;2023-02-18T09:36:11;1.13;;;1.03;;
23123;SDS011;11731;48.592;8.858;2023-02-18T09:38:38;1.53;;;1.00;;
23123;SDS011;11731;48.592;8.858;2023-02-18T09:41:06;2.63;;;1.07;;
23123;SDS011;11731;48.592;8.858;2023-02-18T09:45:49;1.17;;;0.97;;
23123;SDS011;11731;48.592;8.858;2023-02-18T09:47:09;1.23;;;1.00;;
23123;SDS011;11731;48.592;8.858;2023-02-18T09:49:40;1.17;;;1.00;;
23123;SDS011;11731;48.592;8.858;2023-02-18T09:52:11;1.10;;;1.00;;
23123;SDS011;11731;48.592;8.858;2023-02-18T09:54:41;1.37;;;0.97;;
23123;SDS011;11731;48.592;8.858;2023-02-18T09:57:13;0.90;;;0.90;;
23123;SDS011;11731;48.592;8.858;2023-02-18T10:00:04;2.20;;;0.80;;
23123;SDS011;11731;48.592;8.858;2023-02-18T10:02:54;1.60;;;1.10;;
23123;SDS011;11731;48.592;8.858;2023-02-18T10:08:15;1.27;;;1.13;;
23123;SDS011;11731;48.592;8.858;2023-02-18T10:10:46;1.27;;;0.83;;
23123;SDS011;11731;48.592;8.858;2023-02-18T10:13:15;1.23;;;0.93;;
23123;SDS011;11731;48.592;8.858;2023-02-18T10:15:43;1.20;;;1.10;;
23123;SDS011;11731;48.592;8.858;2023-02-18T10:18:19;1.40;;;0.90;;
23123;SDS011;11731;48.592;8.858;2023-02-18T10:21:02;1.30;;;0.90;;
23123;SDS011;11731;48.592;8.858;2023-02-18T10:23:33;0.80;;;0.80;;
23123;SDS011;11731;48.592;8.858;2023-02-18T10:26:04;1.63;;;1.10;;
23123;SDS011;11731;48.592;8.858;2023-02-18T10:28:33;0.80;;;0.80;;
23123;SDS011;11731;48.592;8.858;2023-02-18T10:31:02;0.97;;;0.90;;
23123;SDS011;11731;48.592;8.858;2023-02-18T10:33:41;1.80;;;1.13;;
23123;SDS011;11731;48.592;8.858;2023-02-18T10:36:22;2.10;;;1.10;;
23123;SDS011;11731;48.592;8.858;2023-02-18T10:39:24;0.93;;;0.90;;
23123;SDS011;11731;48.592;8.858;2023-02-18T10:42:17;1.73;;;1.10;;
23123;SDS011;11731;48.592;8.858;2023-02-18T10:44:54;0.93;;;0.90;;
23123;SDS011;11731;48.592;8.858;2023-02-18T10:47:32;1.13;;;0.90;;
23123;SDS011;11731;48.592;8.858;2023-02-18T10:50:07;0.83;;;0.70;;
23123;SDS011;11731;48.592;8.858;2023-02-18T10:52:39;1.17;;;1.07;;
23123;SDS011;11731;48.592;8.858;2023-02-18T10:55:09;1.43;;;0.90;;
23123;SDS011;11731;48.592;8.858;2023-02-18T10:57:57;0.83;;;0.83;;
23123;SDS011;11731;48.592;8.858;2023-02-18T11:00:24;1.97;;;1.17;;
23123;SDS011;11731;48.592;8.858;2023-02-18T11:05:52;0.87;;;0.87;;
23123;SDS011;11731;48.592;8.858;2023-02-18T11:08:23;1.50;;;0.80;;
23123;SDS011;11731;48.592;8.858;2023-02-18T11:10:54;1.27;;;0.80;;
23123;SDS011;11731;48.592;8.858;2023-02-18T11:13:25;1.27;;;0.83;;
23123;SDS011;11731;48.592;8.858;2023-02-18T11:15:58;0.80;;;0.80;;
23123;SDS011;11731;48.592;8.858;2023-02-18T11:18:29;1.00;;;0.90;;
23123;SDS011;11731;48.592;8.858;2023-02-18T11:21:20;0.63;;;0.63;;
23123;SDS011;11731;48.592;8.858;2023-02-18T11:23:53;1.00;;;0.80;;
23123;SDS011;11731;48.592;8.858;2023-02-18T11:26:23;0.83;;;0.80;;
23123;SDS011;11731;48.592;8.858;2023-02-18T11:28:55;1.07;;;0.80;;
23123;SDS011;11731;48.592;8.858;2023-02-18T11:31:26;0.60;;;0.60;;
23123;SDS011;11731;48.592;8.858;2023-02-18T11:34:03;1.23;;;1.03;;
23123;SDS011;11731;48.592;8.858;2023-02-18T11:36:33;2.27;;;0.77;;
23123;SDS011;11731;48.592;8.858;2023-02-18T11:39:04;0.87;;;0.87;;
23123;SDS011;11731;48.592;8.858;2023-02-18T11:41:41;1.27;;;1.00;;
23123;SDS011;11731;48.592;8.858;2023-02-18T11:44:17;0.90;;;0.77;;
23123;SDS011;11731;48.592;8.858;2023-02-18T11:46:55;1.00;;;0.80;;
23123;SDS011;11731;48.592;8.858;2023-02-18T11:49:24;0.70;;;0.50;;
23123;SDS011;11731;48.592;8.858;2023-02-18T11:51:54;0.80;;;0.70;;
23123;SDS011;11731;48.592;8.858;2023-02-18T11:54:30;1.10;;;0.57;;
23123;SDS011;11731;48.592;8.858;2023-02-18T11:57:00;0.80;;;0.80;;
23123;SDS011;11731;48.592;8.858;2023-02-18T11:59:29;1.43;;;1.00;;
23123;SDS011;11731;48.592;8.858;2023-02-18T12:02:00;2.27;;;0.70;;
23123;SDS011;11731;48.592;8.858;2023-02-18T12:04:32;1.30;;;0.90;;
23123;SDS011;11731;48.592;8.858;2023-02-18T12:07:11;2.40;;;1.00;;
23123;SDS011;11731;48.592;8.858;2023-02-18T12:13:19;0.73;;;0.70;;
23123;SDS011;11731;48.592;8.858;2023-02-18T12:15:52;1.87;;;1.10;;
23123;SDS011;11731;48.592;8.858;2023-02-18T12:18:32;1.10;;;1.00;;
23123;SDS011;11731;48.592;8.858;2023-02-18T12:21:14;2.53;;;1.07;;
23123;SDS011;11731;48.592;8.858;2023-02-18T12:23:50;2.73;;;1.20;;
23123;SDS011;11731;48.592;8.858;2023-02-18T12:26:51;1.30;;;1.00;;
23123;SDS011;11731;48.592;8.858;2023-02-18T12:29:29;1.23;;;1.10;;
23123;SDS011;11731;48.592;8.858;2023-02-18T12:32:18;1.17;;;1.07;;
23123;SDS011;11731;48.592;8.858;2023-02-18T12:35:01;1.97;;;1.20;;
23123;SDS011;11731;48.592;8.858;2023-02-18T12:43:39;1.10;;;1.00;;
23123;SDS011;11731;48.592;8.858;2023-02-18T12:46:18;1.80;;;1.60;;
23123;SDS011;11731;48.592;8.858;2023-02-18T12:49:05;0.90;;;0.90;;
23123;SDS011;11731;48.592;8.858;2023-02-18T12:51:51;1.43;;;1.07;;
23123;SDS011;11731;48.592;8.858;2023-02-18T12:54:35;1.40;;;1.27;;
23123;SDS011;11731;48.592;8.858;2023-02-18T12:58:01;1.53;;;1.07;;
23123;SDS011;11731;48.592;8.858;2023-02-18T13:00:32;1.27;;;1.10;;
23123;SDS011;11731;48.592;8.858;2023-02-18T13:06:30;1.10;;;1.00;;
23123;SDS011;11731;48.592;8.858;2023-02-18T13:12:47;1.20;;;1.10;;
23123;SDS011;11731;48.592;8.858;2023-02-18T13:16:08;1.20;;;1.10;;
23123;SDS011;11731;48.592;8.858;2023-02-18T13:18:38;1.30;;;0.87;;
23123;SDS011;11731;48.592;8.858;2023-02-18T13:21:10;1.13;;;1.03;;
23123;SDS011;11731;48.592;8.858;2023-02-18T13:24:00;1.60;;;1.10;;
23123;SDS011;11731;48.592;8.858;2023-02-18T13:26:32;2.27;;;1.20;;
23123;SDS011;11731;48.592;8.858;2023-02-18T13:29:35;1.10;;;1.00;;
23123;SDS011;11731;48.592;8.858;2023-02-18T13:32:11;1.10;;;1.00;;
23123;SDS011;11731;48.592;8.858;2023-02-18T13:34:45;1.23;;;1.03;;
23123;SDS011;11731;48.592;8.858;2023-02-18T13:37:19;0.93;;;0.87;;
23123;SDS011;11731;48.592;8.858;2023-02-18T13:42:54;1.37;;;1.10;;
23123;SDS011;11731;48.592;8.858;2023-02-18T13:45:43;1.10;;;1.00;;
23123;SDS011;11731;48.592;8.858;2023-02-18T13:48:28;1.70;;;1.10;;
23123;SDS011;11731;48.592;8.858;2023-02-18T13:51:01;1.10;;;1.00;;
23123;SDS011;11731;48.592;8.858;2023-02-18T13:53:33;1.33;;;1.07;;
23123;SDS011;11731;48.592;8.858;2023-02-18T13:56:03;1.30;;;1.20;;
23123;SDS011;11731;48.592;8.858;2023-02-18T13:58:47;2.33;;;1.00;;
23123;SDS011;11731;48.592;8.858;2023-02-18T14:01:20;1.23;;;1.10;;
23123;SDS011;11731;48.592;8.858;2023-02-18T14:03:58;1.13;;;1.03;;
23123;SDS011;11731;48.592;8.858;2023-02-18T14:06:29;1.27;;;1.17;;
23123;SDS011;11731;48.592;8.858;2023-02-18T14:09:34;0.93;;;0.90;;
23123;SDS011;11731;48.592;8.858;2023-02-18T14:15:39;1.20;;;1.10;;
23123;SDS011;11731;48.592;8.858;2023-02-18T14:18:22;1.20;;;1.10;;
23123;SDS011;11731;48.592;8.858;2023-02-18T14:21:04;1.17;;;0.87;;
23123;SDS011;11731;48.592;8.858;2023-02-18T14:26:33;1.20;;;1.10;;
23123;SDS011;11731;48.592;8.858;2023-02-18T14:29:04;1.27;;;1.17;;
23123;SDS011;11731;48.592;8.858;2023-02-18T14:31:39;1.50;;;1.27;;
23123;SDS011;11731;48.592;8.858;2023-02-18T14:37:33;1.43;;;1.30;;
23123;SDS011;11731;48.592;8.858;2023-02-18T14:40:16;1.13;;;0.90;;
23123;SDS011;11731;48.592;8.858;2023-02-18T14:42:54;1.27;;;1.17;;
23123;SDS011;11731;48.592;8.858;2023-02-18T14:46:02;1.10;;;0.90;;
23123;SDS011;11731;48.592;8.858;2023-02-18T14:48:52;1.10;;;1.00;;
23123;SDS011;11731;48.592;8.858;2023-02-18T14:51:31;1.30;;;1.20;;
23123;SDS011;11731;48.592;8.858;2023-02-18T14:54:03;1.30;;;1.17;;
23123;SDS011;11731;48.592;8.858;2023-02-18T14:56:42;3.63;;;1.20;;
23123;SDS011;11731;48.592;8.858;2023-02-18T14:59:20;1.80;;;1.30;;
23123;SDS011;11731;48.592;8.858;2023-02-18T15:01:55;1.07;;;0.90;;
23123;SDS011;11731;48.592;8.858;2023-02-18T15:05:14;1.70;;;1.30;;
23123;SDS011;11731;48.592;8.858;2023-02-18T15:07:54;1.87;;;1.30;;
23123;SDS011;11731;48.592;8.858;2023-02-18T15:10:59;1.20;;;1.10;;
23123;SDS011;11731;48.592;8.858;2023-02-18T15:13:29;1.70;;;1.17;;
23123;SDS011;11731;48.592;8.858;2023-02-18T15:16:00;1.50;;;1.00;;
23123;SDS011;11731;48.592;8.858;2023-02-18T15:18:47;1.33;;;1.10;;
23123;SDS011;11731;48.592;8.858;2023-02-18T15:21:26;1.47;;;1.10;;
23123;SDS011;11731;48.592;8.858;2023-02-18T15:24:00;1.27;;;1.17;;
23123;SDS011;11731;48.592;8.858;2023-02-18T15:26:45;1.23;;;1.03;;
23123;SDS011;11731;48.592;8.858;2023-02-18T15:29:16;1.23;;;1.03;;
23123;SDS011;11731;48.592;8.858;2023-02-18T15:34:53;1.27;;;1.13;;
23123;SDS011;11731;48.592;8.858;2023-02-18T15:37:25;1.63;;;1.20;;
23123;SDS011;11731;48.592;8.858;2023-02-18T15:39:53;1.33;;;1.23;;
23123;SDS011;11731;48.592;8.858;2023-02-18T15:42:22;1.30;;;1.20;;
23123;SDS011;11731;48.592;8.858;2023-02-18T15:44:54;1.93;;;1.10;;
23123;SDS011;11731;48.592;8.858;2023-02-18T15:50:29;2.23;;;2.03;;
23123;SDS011;11731;48.592;8.858;2023-02-18T15:52:59;1.50;;;1.33;;
23123;SDS011;11731;48.592;8.858;2023-02-18T15:55:32;1.60;;;1.30;;
23123;SDS011;11731;48.592;8.858;2023-02-18T15:58:03;2.50;;;1.47;;
23123;SDS011;11731;48.592;8.858;2023-02-18T16:01:48;1.67;;;1.30;;
23123;SDS011;11731;48.592;8.858;2023-02-18T16:03:54;2.53;;;1.10;;
23123;SDS011;11731;48.592;8.858;2023-02-18T16:06:26;1.13;;;1.03;;
23123;SDS011;11731;48.592;8.858;2023-02-18T16:08:56;1.67;;;1.30;;
23123;SDS011;11731;48.592;8.858;2023-02-18T16:11:25;2.70;;;1.50;;
23123;SDS011;11731;48.592;8.858;2023-02-18T16:13:55;1.87;;;1.37;;
23123;SDS011;11731;48.592;8.858;2023-02-18T16:16:23;1.37;;;1.23;;
23123;SDS011;11731;48.592;8.858;2023-02-18T16:19:20;1.47;;;1.30;;
23123;SDS011;11731;48.592;8.858;2023-02-18T16:21:50;1.30;;;1.10;;
23123;SDS011;11731;48.592;8.858;2023-02-18T16:24:21;1.23;;;1.10;;
23123;SDS011;11731;48.592;8.858;2023-02-18T16:26:49;1.17;;;1.07;;
23123;SDS011;11731;48.592;8.858;2023-02-18T16:29:20;2.23;;;1.27;;